Impacts METAR Board
IDs:

KMIA - Miami Intl, FL, US

Updated at: 0400 UTC 22 Apr 2018
Potential Impact None Slight Moderate High
Time 21/16Z 21/17Z 21/18Z 21/19Z 21/20Z 21/21Z 21/22Z 21/23Z 22/00Z 22/01Z 22/02Z 22/03Z 22/04Z
Temp81 82 83 82 83 82 81 79 78 78 78 77 77
Dewpt66 63 65 63 64 67 69 70 70 71 71 71 72
Altim30.12 30.11 30.10 30.09 30.08 30.06 30.06 30.07 30.08 30.09 30.10 30.11 30.11
VIS10 10 10 10 10 10 10 10 10 10 10 10 10
CIG250 250 250 250 250 250 250 -- -- -- -- -- --
CoverBKNBKNBKNBKNBKNBKNBKNSCTSCTFEWFEWFEWFEW
FltCatVFRVFRVFRVFRVFRVFRVFRVFRVFRVFRVFRVFRVFR
WX--------------------------
WDir1001003090807090708060608090
WSpd10 9 9 10 11 5 11 10 11 10 10 10 7
WGst-- -- 16 -- -- -- -- 15 -- -- -- -- --
Raw hourly METARs
KMIA 211553Z 10010KT 10SM FEW035 SCT200 BKN250 27/19 A3012 RMK AO2 SLP200 T02720189 $
KMIA 211653Z 10009KT 10SM FEW035 SCT200 BKN250 28/17 A3011 RMK AO2 SLP196 T02780172 $
KMIA 211753Z 03009G16KT 10SM FEW030 SCT200 BKN250 28/18 A3010 RMK AO2 SLP194 T02830183 10289 20244 58007 $
KMIA 211853Z 09010KT 10SM FEW030 FEW130 BKN250 28/17 A3009 RMK AO2 SLP191 T02780172 $
KMIA 211953Z 08011KT 10SM FEW030 FEW130 BKN250 28/18 A3008 RMK AO2 SLP185 T02830178 $
KMIA 212053Z 07005KT 10SM FEW030 FEW150 BKN250 28/19 A3006 RMK AO2 SLP180 T02780194 58014 $
KMIA 212153Z COR 09011KT 10SM SCT034 SCT150 BKN250 27/21 A3006 RMK AO2 SLP179 T02720206 $
KMIA 212253Z 07010G15KT 10SM FEW030 SCT180 SCT250 26/21 A3007 RMK AO2 SLP181 T02610211 $
KMIA 212353Z 08011KT 10SM SCT024 SCT180 SCT250 26/21 A3008 RMK AO2 SLP187 T02560211 10289 20256 53006 $
KMIA 220053Z COR 06010KT 10SM FEW024 FEW250 26/22 A3009 RMK AO2 SLP188 T02560217 $
KMIA 220153Z 06010KT 10SM FEW022 26/22 A3010 RMK AO2 SLP193 T02560217 $
KMIA 220253Z 08010KT 10SM FEW020 25/22 A3011 RMK AO2 SLP197 T02500217 53010 $
KMIA 220353Z 09007KT 10SM FEW018 FEW025 25/22 A3011 RMK AO2 SLP195 T02500222 $



Page loaded:  04:43 UTC  |   09:43 PM Pacific  |   10:43 PM Mountain  |   11:43 PM Central  |   12:43 AM Eastern

 

ADVISORIES

FORECASTS

FORECASTS

OBSERVATIONS

USER TOOLS

ABOUT US